Time;durP1;ratioP1;P1;durP2;ratioP2;P2;SDS_P1;SDS_P2;PMS_P1;PMS_P2;Temp;Humidity;BMP_temperature;BMP_pressure;BME280_temperature;BME280_humidity;BME280_pressure;Samples;Min_cycle;Max_cycle;Signal;HPM_P1;HPM_P2
2022/03/20 00:00:22;;;;;;;6.45;2.28;;;6.20;32.10;;;;;;5029128;28;25077;-72
2022/03/20 00:02:48;;;;;;;9.07;2.28;;;6.20;32.50;;;;;;5029010;28;25072;-71
2022/03/20 00:05:15;;;;;;;6.43;1.77;;;6.20;32.70;;;;;;5028210;28;25076;-71
2022/03/20 00:07:41;;;;;;;5.40;2.03;;;6.20;34.10;;;;;;5028382;28;25092;-72
2022/03/20 00:10:08;;;;;;;4.00;1.75;;;6.20;34.60;;;;;;5028049;28;25148;-72
2022/03/20 00:12:37;;;;;;;4.93;2.00;;;6.20;35.40;;;;;;5028051;28;25081;-71
2022/03/20 00:15:04;;;;;;;6.70;2.20;;;6.10;35.30;;;;;;5028406;28;25064;-70
2022/03/20 00:17:30;;;;;;;7.28;2.90;;;6.10;35.90;;;;;;5028065;28;25089;-73
2022/03/20 00:19:56;;;;;;;8.57;2.58;;;6.10;36.00;;;;;;5027720;28;25103;-71
2022/03/20 00:22:22;;;;;;;6.13;2.25;;;6.10;36.50;;;;;;5027175;28;25164;-70
2022/03/20 00:24:48;;;;;;;9.43;2.35;;;6.00;37.20;;;;;;5026883;28;25087;-71
2022/03/20 00:27:14;;;;;;;3.38;2.05;;;6.00;37.70;;;;;;5027943;28;25144;-70
2022/03/20 00:29:40;;;;;;;7.35;1.95;;;5.90;38.90;;;;;;5026923;28;25157;-72
2022/03/20 00:32:08;;;;;;;7.70;2.22;;;6.00;38.90;;;;;;5027494;28;25078;-70
2022/03/20 00:34:35;;;;;;;5.65;2.28;;;6.00;39.70;;;;;;5023753;28;25046;-71
2022/03/20 00:37:00;;;;;;;4.95;2.20;;;6.00;40.20;;;;;;5028652;28;25183;-71
2022/03/20 00:39:26;;;;;;;5.70;2.33;;;5.90;41.00;;;;;;5027925;28;25117;-72
2022/03/20 00:41:51;;;;;;;8.55;2.45;;;5.90;41.50;;;;;;5020434;28;25133;-73
2022/03/20 00:44:17;;;;;;;9.57;3.08;;;5.90;41.40;;;;;;5017981;28;25115;-73
2022/03/20 00:46:43;;;;;;;3.97;2.50;;;6.00;41.80;;;;;;5011094;28;25111;-73
2022/03/20 00:49:09;;;;;;;8.98;2.38;;;5.90;42.40;;;;;;5012925;28;25062;-71
2022/03/20 00:51:35;;;;;;;6.13;3.22;;;5.90;43.50;;;;;;5013529;28;25051;-73
2022/03/20 00:54:00;;;;;;;7.47;2.97;;;5.80;44.00;;;;;;5013364;28;25134;-71
2022/03/20 00:56:27;;;;;;;6.65;2.80;;;5.80;44.90;;;;;;5011468;28;25156;-71
2022/03/20 00:58:52;;;;;;;9.60;2.30;;;5.80;45.50;;;;;;5020209;28;25058;-71
2022/03/20 01:01:18;;;;;;;8.23;3.45;;;5.80;46.60;;;;;;5016383;28;25056;-71
2022/03/20 01:03:44;;;;;;;6.47;3.05;;;5.70;46.90;;;;;;5018188;28;25061;-71
2022/03/20 01:06:11;;;;;;;7.32;2.80;;;5.70;46.80;;;;;;5018462;28;25149;-70
2022/03/20 01:08:38;;;;;;;11.05;2.92;;;5.70;47.50;;;;;;5015443;28;25073;-71
2022/03/20 01:11:08;;;;;;;4.60;2.92;;;5.70;48.10;;;;;;5011521;28;25060;-69
2022/03/20 01:13:34;;;;;;;9.25;3.45;;;5.70;48.10;;;;;;5015787;28;25066;-70
2022/03/20 01:16:00;;;;;;;8.30;3.20;;;5.70;48.50;;;;;;5020001;28;25073;-71
2022/03/20 01:18:26;;;;;;;5.25;3.42;;;5.70;48.60;;;;;;5011909;28;25093;-71
2022/03/20 01:20:53;;;;;;;8.90;3.60;;;5.60;49.00;;;;;;5012651;28;25093;-71
2022/03/20 01:23:21;;;;;;;8.68;3.30;;;5.60;49.60;;;;;;5035467;28;25457;-72
2022/03/20 01:25:50;;;;;;;9.20;3.97;;;5.60;50.30;;;;;;5025141;28;25103;-72
2022/03/20 01:28:16;;;;;;;10.52;4.07;;;5.60;50.90;;;;;;5025397;28;25095;-69
2022/03/20 01:30:42;;;;;;;7.43;3.72;;;5.60;51.20;;;;;;5026320;28;25105;-72
2022/03/20 01:33:08;;;;;;;6.60;3.63;;;5.60;51.70;;;;;;5026161;28;25171;-70
2022/03/20 01:35:35;;;;;;;12.85;4.60;;;5.50;52.20;;;;;;5030105;28;25167;-72
2022/03/20 01:38:01;;;;;;;8.15;3.92;;;5.40;52.70;;;;;;5030403;28;25106;-69
2022/03/20 01:40:27;;;;;;;10.93;4.13;;;5.40;53.40;;;;;;5030414;28;25086;-72
2022/03/20 01:42:52;;;;;;;8.60;3.95;;;5.30;54.10;;;;;;5029856;28;25162;-73
2022/03/20 01:45:20;;;;;;;7.50;4.38;;;5.30;54.70;;;;;;5028625;28;25062;-72
2022/03/20 01:47:49;;;;;;;11.32;5.30;;;5.30;55.30;;;;;;5029928;28;25074;-73
2022/03/20 01:50:22;;;;;;;10.80;5.55;;;5.30;55.10;;;;;;5030130;28;25124;-71
2022/03/20 01:52:50;;;;;;;7.32;4.45;;;5.20;56.10;;;;;;5029032;28;25104;-71
2022/03/20 01:55:16;;;;;;;9.40;5.57;;;5.20;56.30;;;;;;5029934;28;25082;-72
2022/03/20 01:57:44;;;;;;;9.85;5.40;;;5.20;55.80;;;;;;5030808;28;25132;-73
2022/03/20 02:00:11;;;;;;;8.60;6.43;;;5.20;55.80;;;;;;5031584;28;25138;-72
2022/03/20 02:02:37;;;;;;;13.88;5.72;;;5.20;56.40;;;;;;5030341;28;25054;-70
2022/03/20 02:05:05;;;;;;;9.23;6.28;;;5.20;56.30;;;;;;5029278;28;25075;-72
2022/03/20 02:07:34;;;;;;;14.68;6.90;;;5.20;56.70;;;;;;5029727;28;25062;-72
2022/03/20 02:10:00;;;;;;;12.27;6.78;;;5.10;57.20;;;;;;5030154;28;25069;-71
2022/03/20 02:12:26;;;;;;;15.52;7.57;;;5.10;57.60;;;;;;5030933;28;25064;-71
2022/03/20 02:14:52;;;;;;;12.23;6.80;;;5.10;58.00;;;;;;5029824;28;25075;-72
2022/03/20 02:17:18;;;;;;;9.35;6.40;;;5.00;58.40;;;;;;5029976;28;25069;-72
2022/03/20 02:19:45;;;;;;;18.23;7.63;;;5.00;58.60;;;;;;5029224;28;25075;-70
2022/03/20 02:22:11;;;;;;;17.42;7.40;;;5.00;59.10;;;;;;5028928;28;25068;-70
2022/03/20 02:24:44;;;;;;;14.90;7.78;;;5.00;59.60;;;;;;5028972;28;25158;-70
2022/03/20 02:27:16;;;;;;;11.38;8.05;;;4.90;59.70;;;;;;5029551;28;25128;-70
2022/03/20 02:29:44;;;;;;;13.73;8.13;;;5.00;59.40;;;;;;5028111;28;25105;-73
2022/03/20 02:32:12;;;;;;;15.98;9.10;;;4.90;59.80;;;;;;5028063;28;25106;-71
2022/03/20 02:34:39;;;;;;;14.63;8.85;;;4.90;60.00;;;;;;5028248;28;25076;-70
2022/03/20 02:37:05;;;;;;;17.85;9.00;;;4.90;60.10;;;;;;5027973;28;25059;-70
2022/03/20 02:39:32;;;;;;;14.40;8.73;;;4.90;60.30;;;;;;5024210;28;25156;-72
2022/03/20 02:42:01;;;;;;;15.57;9.45;;;4.90;60.60;;;;;;5031089;28;25074;-73
2022/03/20 02:44:50;;;;;;;17.70;10.57;;;4.90;60.60;;;;;;5031170;28;25068;-69
2022/03/20 02:47:20;;;;;;;18.90;10.23;;;4.90;60.80;;;;;;5028255;28;25134;-72
2022/03/20 02:49:51;;;;;;;18.00;10.00;;;4.80;61.10;;;;;;5028886;28;25061;-73
2022/03/20 02:52:16;;;;;;;17.90;10.40;;;4.80;61.40;;;;;;5018768;28;25085;-70
2022/03/20 02:54:42;;;;;;;18.52;10.73;;;4.80;61.90;;;;;;5028067;28;25072;-71
2022/03/20 02:57:08;;;;;;;16.35;10.13;;;4.80;62.20;;;;;;5027913;28;25086;-74
2022/03/20 02:59:34;;;;;;;15.98;11.18;;;4.80;62.50;;;;;;5027227;28;25149;-70
2022/03/20 03:02:01;;;;;;;22.48;11.20;;;4.70;62.80;;;;;;5027715;28;25167;-70
2022/03/20 03:04:26;;;;;;;18.30;11.07;;;4.70;63.10;;;;;;5028619;28;25077;-70
2022/03/20 03:06:52;;;;;;;18.60;11.70;;;4.70;63.40;;;;;;5030129;28;25046;-70
2022/03/20 03:12:04;;;;;;;18.30;11.48;;;4.70;64.20;;;;;;5028299;28;25067;-70
2022/03/20 03:17:27;;;;;;;16.88;10.77;;;4.60;65.00;;;;;;5029347;28;25115;-70
2022/03/20 03:19:56;;;;;;;21.10;10.82;;;4.60;65.80;;;;;;5029009;28;25071;-73
2022/03/20 03:22:26;;;;;;;21.33;10.68;;;4.50;66.50;;;;;;5026011;28;25075;-70
2022/03/20 03:24:53;;;;;;;16.23;10.77;;;4.50;66.90;;;;;;5026834;28;25154;-70
2022/03/20 03:27:19;;;;;;;18.67;11.38;;;4.50;67.70;;;;;;5024507;28;25089;-72
2022/03/20 03:29:44;;;;;;;15.93;10.93;;;4.50;68.40;;;;;;5025532;28;25106;-71
2022/03/20 03:32:10;;;;;;;21.25;10.57;;;4.50;69.10;;;;;;5027491;28;25150;-71
2022/03/20 03:37:22;;;;;;;14.70;10.70;;;4.40;69.90;;;;;;5027551;28;25059;-70
2022/03/20 03:39:48;;;;;;;19.70;10.57;;;4.40;70.60;;;;;;5027925;28;25065;-69
2022/03/20 03:42:14;;;;;;;23.38;11.15;;;4.50;71.00;;;;;;5027781;28;25055;-71
2022/03/20 03:44:39;;;;;;;16.45;10.75;;;4.40;71.60;;;;;;5027962;28;25179;-69
2022/03/20 03:47:06;;;;;;;16.15;9.95;;;4.40;72.10;;;;;;5027607;28;25146;-71
2022/03/20 03:49:33;;;;;;;17.60;11.55;;;4.40;72.50;;;;;;5025243;28;25103;-71
2022/03/20 03:52:00;;;;;;;21.13;10.75;;;4.40;72.90;;;;;;5027088;28;25062;-73
2022/03/20 03:54:25;;;;;;;15.68;11.32;;;4.30;73.40;;;;;;5025948;28;25047;-70
2022/03/20 03:56:51;;;;;;;20.52;10.85;;;4.30;73.70;;;;;;5026602;28;25078;-71
2022/03/20 03:59:17;;;;;;;17.17;9.93;;;4.30;74.00;;;;;;5027907;28;25098;-69
2022/03/20 04:01:43;;;;;;;19.67;10.35;;;4.30;74.50;;;;;;5026520;28;25065;-70
2022/03/20 04:04:09;;;;;;;18.98;10.65;;;4.20;74.50;;;;;;5026579;28;25066;-70
2022/03/20 04:06:34;;;;;;;17.95;10.32;;;4.20;74.80;;;;;;5027474;28;25062;-70
2022/03/20 04:09:00;;;;;;;19.35;10.48;;;4.20;75.10;;;;;;5027326;28;25043;-72
2022/03/20 04:11:26;;;;;;;17.77;10.85;;;4.20;75.00;;;;;;5027958;28;25061;-71
2022/03/20 04:13:52;;;;;;;18.48;11.10;;;4.20;75.30;;;;;;5027656;28;25163;-70
2022/03/20 04:16:18;;;;;;;16.23;10.38;;;4.10;75.60;;;;;;5027080;28;25094;-71
2022/03/20 04:18:44;;;;;;;21.13;10.77;;;4.20;75.90;;;;;;5028753;28;25074;-70
2022/03/20 04:21:10;;;;;;;21.85;10.55;;;4.10;75.80;;;;;;5031082;28;25046;-72
2022/03/20 04:23:49;;;;;;;18.48;10.27;;;4.10;75.90;;;;;;5030806;28;25064;-72
2022/03/20 04:26:20;;;;;;;20.60;10.77;;;4.10;76.00;;;;;;5028195;28;25072;-73
2022/03/20 04:28:47;;;;;;;18.75;10.70;;;4.10;76.30;;;;;;5030634;28;25087;-70
2022/03/20 04:31:16;;;;;;;19.30;11.38;;;4.00;76.70;;;;;;5032577;28;25066;-71
2022/03/20 04:33:48;;;;;;;19.63;11.27;;;3.90;77.10;;;;;;5017100;28;25155;-71
2022/03/20 04:36:14;;;;;;;22.03;11.37;;;4.00;77.20;;;;;;5030753;28;25081;-72
2022/03/20 04:38:40;;;;;;;20.73;10.32;;;4.00;77.10;;;;;;5026111;28;25129;-70
2022/03/20 04:41:06;;;;;;;19.15;11.63;;;3.90;77.40;;;;;;5025923;28;25065;-70
2022/03/20 04:43:32;;;;;;;15.68;11.25;;;3.90;77.50;;;;;;5025786;28;25076;-71
2022/03/20 04:45:58;;;;;;;18.58;11.55;;;3.90;77.60;;;;;;5025047;28;25077;-72
2022/03/20 04:59:20;;;;;;;27.02;13.90;;;3.90;76.10;;;;;;5025942;28;25142;-72
2022/03/20 05:01:46;;;;;;;21.20;12.18;;;3.80;76.90;;;;;;5025620;28;25088;-70
2022/03/20 05:04:13;;;;;;;18.00;11.00;;;3.80;77.10;;;;;;5024727;28;25096;-71
2022/03/20 05:06:39;;;;;;;20.83;11.77;;;3.80;77.20;;;;;;5026403;28;25122;-71
2022/03/20 05:14:33;;;;;;;28.70;13.38;;;3.70;76.10;;;;;;5026657;28;25103;-72
2022/03/20 05:16:58;;;;;;;21.73;11.80;;;3.70;75.70;;;;;;5025337;28;25109;-72
2022/03/20 05:19:24;;;;;;;24.40;12.60;;;3.70;75.60;;;;;;5025914;28;25072;-71
2022/03/20 05:21:49;;;;;;;26.23;12.73;;;3.70;75.00;;;;;;5026394;28;25090;-71
2022/03/20 05:24:16;;;;;;;22.42;12.93;;;3.70;75.00;;;;;;5026019;28;25109;-70
2022/03/20 05:26:42;;;;;;;24.55;13.52;;;3.70;74.60;;;;;;5025603;28;25117;-72
2022/03/20 05:29:08;;;;;;;22.70;12.68;;;3.70;74.70;;;;;;5026441;28;25124;-71
2022/03/20 05:31:33;;;;;;;23.77;12.55;;;3.70;74.50;;;;;;5025348;28;25080;-72
2022/03/20 05:34:00;;;;;;;21.02;12.60;;;3.70;74.50;;;;;;5014566;28;25060;-69
2022/03/20 05:36:29;;;;;;;26.48;13.65;;;3.80;74.30;;;;;;5020040;28;25066;-73
2022/03/20 05:38:56;;;;;;;27.10;13.77;;;3.70;74.10;;;;;;5008978;28;25079;-70
2022/03/20 05:44:06;;;;;;;24.73;13.85;;;3.70;74.10;;;;;;5016244;28;25108;-70
2022/03/20 05:46:31;;;;;;;26.77;14.13;;;3.70;74.50;;;;;;5012009;28;25090;-70
2022/03/20 05:48:57;;;;;;;25.35;13.73;;;3.70;74.10;;;;;;5017262;28;25127;-71
2022/03/20 05:51:24;;;;;;;26.58;15.07;;;3.60;74.10;;;;;;5014345;28;25071;-71
2022/03/20 05:53:49;;;;;;;23.35;14.27;;;3.60;73.90;;;;;;5015591;28;25121;-71
2022/03/20 05:58:59;;;;;;;27.48;13.82;;;3.70;74.00;;;;;;5045027;28;25145;-71
2022/03/20 06:01:26;;;;;;;24.35;14.07;;;3.70;74.10;;;;;;5046463;28;25073;-73
2022/03/20 06:03:52;;;;;;;26.70;15.52;;;3.60;73.90;;;;;;5040001;28;25059;-72
2022/03/20 06:06:17;;;;;;;28.65;14.15;;;3.60;73.70;;;;;;5022647;28;25066;-70
2022/03/20 06:08:43;;;;;;;29.08;15.13;;;3.60;73.00;;;;;;5020448;28;25123;-71
2022/03/20 06:11:09;;;;;;;24.55;14.73;;;3.50;73.20;;;;;;5031680;28;25132;-70
2022/03/20 06:13:35;;;;;;;27.42;14.68;;;3.60;72.90;;;;;;5027907;28;25157;-71
2022/03/20 06:16:01;;;;;;;23.38;14.43;;;3.60;72.50;;;;;;5025788;28;25063;-71
2022/03/20 06:18:27;;;;;;;25.65;15.07;;;3.60;72.30;;;;;;5023665;28;25070;-72
2022/03/20 06:20:54;;;;;;;25.92;14.25;;;3.70;72.20;;;;;;5027955;28;25094;-71
2022/03/20 06:23:19;;;;;;;24.65;13.98;;;3.70;71.90;;;;;;5029118;28;25064;-71
2022/03/20 06:25:45;;;;;;;29.27;15.15;;;3.70;72.80;;;;;;5029811;28;25051;-72
2022/03/20 06:28:11;;;;;;;25.30;14.75;;;3.70;71.80;;;;;;5031886;28;25168;-71
2022/03/20 06:30:36;;;;;;;25.77;14.45;;;3.80;71.70;;;;;;5038732;28;25054;-68
2022/03/20 06:33:02;;;;;;;25.08;15.10;;;3.70;71.60;;;;;;5027813;28;25142;-72
2022/03/20 06:35:28;;;;;;;28.92;15.30;;;3.70;72.00;;;;;;5025733;28;25078;-72
2022/03/20 06:37:54;;;;;;;22.20;15.02;;;3.70;71.20;;;;;;5029141;28;25076;-74
2022/03/20 06:40:20;;;;;;;26.80;15.18;;;3.80;71.20;;;;;;5029322;28;25067;-74
2022/03/20 06:42:46;;;;;;;26.38;15.05;;;3.80;71.20;;;;;;5029745;28;25063;-73
2022/03/20 06:45:13;;;;;;;27.95;15.50;;;3.80;70.50;;;;;;5029181;28;25058;-75
2022/03/20 06:47:41;;;;;;;29.00;15.55;;;3.80;70.10;;;;;;5030343;28;25068;-75
2022/03/20 06:50:09;;;;;;;27.08;15.93;;;3.80;69.40;;;;;;5029867;28;25081;-72
2022/03/20 06:52:35;;;;;;;34.13;16.38;;;3.90;69.30;;;;;;5030138;28;24656;-73
2022/03/20 06:55:02;;;;;;;30.52;16.02;;;3.90;68.70;;;;;;5028947;28;25082;-74
2022/03/20 06:57:30;;;;;;;27.65;16.40;;;3.90;68.50;;;;;;5028377;28;25106;-73
2022/03/20 06:59:57;;;;;;;25.40;16.13;;;4.00;68.20;;;;;;5029084;28;25065;-72
2022/03/20 07:02:23;;;;;;;26.05;15.68;;;4.00;67.10;;;;;;5028846;28;25121;-73
2022/03/20 07:04:53;;;;;;;29.48;15.85;;;4.00;66.80;;;;;;5029524;28;25063;-72
2022/03/20 07:07:25;;;;;;;26.83;16.35;;;4.10;66.00;;;;;;5029978;28;25075;-71
2022/03/20 07:09:51;;;;;;;26.25;16.20;;;4.10;65.20;;;;;;5031281;28;25072;-71
2022/03/20 07:12:17;;;;;;;27.23;16.83;;;4.20;65.30;;;;;;5030769;28;25091;-74
2022/03/20 07:14:43;;;;;;;26.35;15.90;;;4.30;64.50;;;;;;5028979;28;25130;-71
2022/03/20 07:17:13;;;;;;;31.17;16.23;;;4.30;64.00;;;;;;5028350;28;25048;-73
2022/03/20 07:19:43;;;;;;;31.35;16.58;;;4.30;62.70;;;;;;5028803;28;25136;-71
2022/03/20 07:22:11;;;;;;;29.58;17.27;;;4.50;62.10;;;;;;5028466;28;25142;-71
2022/03/20 07:24:40;;;;;;;26.13;16.77;;;4.50;60.90;;;;;;5028288;28;25078;-74
2022/03/20 07:29:50;;;;;;;27.27;17.38;;;4.60;59.10;;;;;;5029437;28;25128;-71
2022/03/20 07:32:16;;;;;;;33.63;16.77;;;4.70;57.60;;;;;;5028732;28;25073;-74
2022/03/20 07:34:45;;;;;;;35.70;18.33;;;4.80;57.50;;;;;;5028870;28;25074;-74
2022/03/20 07:37:18;;;;;;;28.73;17.38;;;4.80;57.00;;;;;;5025955;28;25139;-70
2022/03/20 07:39:46;;;;;;;27.48;17.30;;;4.90;56.70;;;;;;5028560;28;25077;-73
2022/03/20 07:42:12;;;;;;;27.05;16.92;;;4.90;55.80;;;;;;5027084;28;25047;-72
2022/03/20 07:44:38;;;;;;;26.00;16.52;;;5.00;56.60;;;;;;5025722;28;25076;-71
2022/03/20 07:47:08;;;;;;;31.25;17.45;;;5.10;55.40;;;;;;5014825;28;25067;-70
2022/03/20 07:49:36;;;;;;;26.77;17.25;;;5.20;54.10;;;;;;5026165;28;25134;-73
2022/03/20 07:52:02;;;;;;;30.60;18.65;;;5.20;53.50;;;;;;5026428;28;25051;-73
2022/03/20 07:54:28;;;;;;;32.03;19.05;;;5.20;52.30;;;;;;5012401;28;25071;-70
2022/03/20 07:56:54;;;;;;;33.90;17.75;;;5.10;50.90;;;;;;5021378;28;25079;-73
2022/03/20 07:59:20;;;;;;;30.00;17.50;;;5.20;51.60;;;;;;5020251;28;25060;-72
2022/03/20 08:01:45;;;;;;;31.60;17.52;;;5.30;50.30;;;;;;5018842;28;25063;-72
2022/03/20 08:04:11;;;;;;;31.10;18.42;;;5.30;49.40;;;;;;5025547;28;25107;-72
2022/03/20 08:06:36;;;;;;;26.58;16.42;;;5.40;48.60;;;;;;5020637;28;25200;-70
2022/03/20 08:09:02;;;;;;;27.33;17.27;;;5.40;46.10;;;;;;5015675;28;25067;-73
2022/03/20 08:11:29;;;;;;;33.22;17.65;;;5.40;46.90;;;;;;5022217;28;25085;-70
2022/03/20 08:13:55;;;;;;;32.20;17.95;;;5.50;46.50;;;;;;5019641;28;25100;-70
2022/03/20 08:16:25;;;;;;;29.42;17.73;;;5.50;44.90;;;;;;5018347;28;25063;-72
2022/03/20 08:18:56;;;;;;;31.98;18.15;;;5.60;44.30;;;;;;5025540;28;25095;-70
2022/03/20 08:21:22;;;;;;;28.50;16.90;;;5.60;43.00;;;;;;5020295;28;25062;-73
2022/03/20 08:23:48;;;;;;;27.08;16.65;;;5.60;41.40;;;;;;5029391;28;25074;-72
2022/03/20 08:26:14;;;;;;;28.65;16.95;;;5.60;40.60;;;;;;5021107;28;25052;-72
2022/03/20 08:28:42;;;;;;;26.30;16.92;;;5.60;39.50;;;;;;5021028;28;25147;-72
2022/03/20 08:31:08;;;;;;;27.65;16.83;;;5.70;40.40;;;;;;5017931;28;25068;-72
2022/03/20 08:33:34;;;;;;;27.67;17.33;;;5.70;39.50;;;;;;5020807;28;25143;-72
2022/03/20 08:36:02;;;;;;;28.92;16.88;;;5.60;36.90;;;;;;5022548;28;25108;-72
2022/03/20 08:38:28;;;;;;;29.17;17.13;;;5.60;37.30;;;;;;5013349;28;25054;-72
2022/03/20 08:40:54;;;;;;;26.92;17.40;;;5.70;36.80;;;;;;5020693;28;25089;-71
2022/03/20 08:43:21;;;;;;;25.60;16.58;;;5.70;37.20;;;;;;5018930;28;25145;-72
2022/03/20 08:45:47;;;;;;;28.33;16.83;;;5.90;36.70;;;;;;5013183;28;25066;-70
2022/03/20 08:48:12;;;;;;;28.33;17.05;;;5.90;36.80;;;;;;5019285;28;25059;-69
2022/03/20 08:50:38;;;;;;;29.17;16.40;;;5.90;34.80;;;;;;5021342;28;25073;-71
2022/03/20 08:53:04;;;;;;;32.22;17.95;;;5.90;35.20;;;;;;5018924;28;25061;-71
2022/03/20 08:55:33;;;;;;;28.92;17.23;;;5.90;35.30;;;;;;5017253;28;25066;-75
2022/03/20 08:57:59;;;;;;;32.45;17.70;;;5.90;35.70;;;;;;5016667;28;25064;-71
2022/03/20 09:00:25;;;;;;;30.85;16.95;;;6.00;36.40;;;;;;5012192;28;25062;-71
2022/03/20 09:02:51;;;;;;;28.17;17.08;;;6.00;35.60;;;;;;5016032;28;25098;-72
2022/03/20 09:05:18;;;;;;;32.00;17.98;;;6.00;36.50;;;;;;5021806;28;25072;-72
2022/03/20 09:07:45;;;;;;;29.17;16.63;;;6.00;35.90;;;;;;5020741;28;25061;-71
2022/03/20 09:10:13;;;;;;;30.58;17.75;;;5.90;35.80;;;;;;5017881;28;25071;-71
2022/03/20 09:12:39;;;;;;;34.97;19.27;;;5.90;35.10;;;;;;5027158;28;25079;-70
2022/03/20 09:15:12;;;;;;;30.50;17.50;;;5.90;35.00;;;;;;5026984;28;25066;-72
2022/03/20 09:20:22;;;;;;;27.67;18.35;;;5.80;34.30;;;;;;5042844;28;24071;-73
2022/03/20 09:22:48;;;;;;;37.53;23.65;;;5.80;35.70;;;;;;5037670;28;25055;-71
2022/03/20 09:25:14;;;;;;;42.50;23.92;;;5.30;45.90;;;;;;5035520;28;25068;-71
2022/03/20 09:27:40;;;;;;;38.65;24.50;;;5.20;50.50;;;;;;5031361;28;25062;-71
2022/03/20 09:30:06;;;;;;;40.38;23.95;;;5.00;53.60;;;;;;5031235;28;25075;-71
2022/03/20 09:32:32;;;;;;;38.17;23.88;;;4.90;55.20;;;;;;5025216;28;25080;-72
2022/03/20 09:34:58;;;;;;;41.78;23.73;;;4.80;56.60;;;;;;5035257;28;25076;-71
2022/03/20 09:37:23;;;;;;;41.83;24.30;;;4.90;57.80;;;;;;5049339;28;25077;-71
2022/03/20 09:39:49;;;;;;;45.10;25.02;;;4.90;57.80;;;;;;5040500;28;25072;-70
2022/03/20 09:42:18;;;;;;;39.53;24.52;;;4.90;56.80;;;;;;5037358;28;25078;-72
2022/03/20 09:44:45;;;;;;;42.33;25.30;;;4.90;55.50;;;;;;5043438;28;25080;-71
2022/03/20 09:47:17;;;;;;;39.80;24.83;;;4.90;55.70;;;;;;5046760;28;25076;-71
2022/03/20 09:49:44;;;;;;;37.13;23.50;;;5.00;57.00;;;;;;5045052;28;25059;-74
2022/03/20 09:52:10;;;;;;;40.33;25.05;;;4.90;58.40;;;;;;5040337;28;25062;-71
2022/03/20 09:54:36;;;;;;;46.22;26.90;;;4.70;61.30;;;;;;5040696;28;25059;-73
2022/03/20 09:57:09;;;;;;;41.83;27.50;;;4.70;63.40;;;;;;5053034;28;25064;-73
2022/03/20 09:59:38;;;;;;;51.97;29.90;;;4.70;67.00;;;;;;5026345;28;25058;-75
2022/03/20 10:02:05;;;;;;;50.90;30.00;;;4.40;69.70;;;;;;5021829;28;25058;-74
2022/03/20 10:04:34;;;;;;;45.85;28.85;;;4.20;72.90;;;;;;5024733;28;25115;-74
2022/03/20 10:07:00;;;;;;;41.38;29.25;;;4.20;75.40;;;;;;5022550;28;25067;-74
2022/03/20 10:09:26;;;;;;;51.53;31.40;;;4.00;75.30;;;;;;5026530;28;25108;-72
2022/03/20 10:11:54;;;;;;;50.58;29.77;;;3.80;77.50;;;;;;5027454;28;25060;-74
2022/03/20 10:14:23;;;;;;;52.33;31.55;;;3.70;78.30;;;;;;5028059;28;25173;-73
2022/03/20 10:17:16;;;;;;;53.78;32.72;;;3.80;81.10;;;;;;5027598;28;25169;-73
2022/03/20 10:19:42;;;;;;;57.10;33.90;;;3.80;82.20;;;;;;5020284;28;25057;-74
2022/03/20 10:22:10;;;;;;;52.03;31.63;;;3.90;82.70;;;;;;5020174;28;25065;-75
2022/03/20 10:24:40;;;;;;;43.22;30.42;;;3.90;83.90;;;;;;5020418;28;25061;-73
2022/03/20 10:27:13;;;;;;;51.25;32.70;;;4.10;84.00;;;;;;5021793;28;25055;-73
2022/03/20 10:29:47;;;;;;;52.03;32.63;;;4.30;84.00;;;;;;5020462;28;25073;-73
2022/03/20 10:32:13;;;;;;;47.58;31.33;;;4.40;82.60;;;;;;5023456;28;25088;-75
2022/03/20 10:34:48;;;;;;;51.45;32.22;;;4.60;82.60;;;;;;5039701;28;25069;-74
2022/03/20 10:37:14;;;;;;;48.05;31.50;;;4.80;81.10;;;;;;5024979;28;25138;-74
2022/03/20 10:39:42;;;;;;;51.50;31.45;;;4.60;80.00;;;;;;5014663;28;25072;-74
2022/03/20 10:42:12;;;;;;;45.17;30.08;;;4.70;81.60;;;;;;5013179;28;25103;-73
2022/03/20 10:44:38;;;;;;;49.25;32.45;;;4.80;81.30;;;;;;5008926;28;25080;-74
2022/03/20 10:47:10;;;;;;;54.63;31.98;;;5.00;81.90;;;;;;5012207;28;25144;-75
2022/03/20 10:49:36;;;;;;;;;;;5.00;80.50;;;;;;5012890;28;25063;-76
2022/03/20 10:52:04;;;;;;;47.35;29.63;;;5.00;80.30;;;;;;5020165;28;25149;-75
2022/03/20 10:54:46;;;;;;;42.55;29.33;;;5.10;80.60;;;;;;5017111;28;25083;-74
2022/03/20 10:57:14;;;;;;;46.20;30.43;;;5.20;77.70;;;;;;5016397;28;25070;-73
2022/03/20 10:59:41;;;;;;;38.72;26.70;;;5.50;77.80;;;;;;5020267;28;25094;-73
2022/03/20 11:02:20;;;;;;;44.88;28.45;;;5.70;76.70;;;;;;5025008;28;25074;-74
2022/03/20 11:04:45;;;;;;;42.92;28.15;;;5.90;72.00;;;;;;5022756;28;25097;-73
2022/03/20 11:07:16;;;;;;;40.67;26.63;;;6.10;72.90;;;;;;5018423;28;25103;-73
2022/03/20 11:09:48;;;;;;;37.58;24.58;;;6.30;69.50;;;;;;5020476;28;25065;-74
2022/03/20 11:12:34;;;;;;;38.95;24.90;;;6.70;65.60;;;;;;5020652;28;25079;-74
2022/03/20 11:15:04;;;;;;;38.85;25.77;;;6.90;58.40;;;;;;5023887;28;25077;-72
2022/03/20 11:17:44;;;;;;;39.33;25.80;;;7.10;59.40;;;;;;5021203;28;25068;-75
2022/03/20 11:20:12;;;;;;;40.08;24.02;;;7.30;54.30;;;;;;5033580;28;25064;-74
2022/03/20 11:22:53;;;;;;;37.50;24.50;;;7.40;50.40;;;;;;5031232;28;25164;-75
2022/03/20 11:25:24;;;;;;;45.72;25.65;;;7.70;50.60;;;;;;5029833;28;25057;-73
2022/03/20 11:28:01;;;;;;;37.88;25.00;;;7.80;47.80;;;;;;5030020;28;25082;-72
2022/03/20 11:30:28;;;;;;;39.42;24.73;;;8.00;47.60;;;;;;5032973;28;25069;-73
2022/03/20 11:33:00;;;;;;;40.95;24.63;;;7.90;42.40;;;;;;5036023;28;25049;-74
2022/03/20 11:35:30;;;;;;;38.55;24.00;;;7.80;43.40;;;;;;5027998;28;25045;-72
2022/03/20 11:37:59;;;;;;;39.45;24.10;;;7.90;41.30;;;;;;5025308;28;25119;-72
2022/03/20 11:40:26;;;;;;;36.47;22.58;;;8.00;41.60;;;;;;5028766;28;25146;-73
2022/03/20 11:43:11;;;;;;;37.03;23.10;;;8.00;38.60;;;;;;5033981;28;25144;-73
2022/03/20 11:45:37;;;;;;;33.30;22.58;;;7.90;38.40;;;;;;5018638;28;25070;-73
2022/03/20 11:48:15;;;;;;;36.25;23.00;;;8.00;37.10;;;;;;5027987;28;25068;-74
2022/03/20 11:50:47;;;;;;;34.33;21.75;;;8.00;34.70;;;;;;5028775;28;25055;-72
2022/03/20 11:53:25;;;;;;;34.85;22.58;;;8.20;34.80;;;;;;5027693;28;25089;-79
2022/03/20 11:55:51;;;;;;;37.78;25.27;;;8.60;33.50;;;;;;5028894;28;25110;-73
2022/03/20 11:58:17;;;;;;;38.05;24.48;;;7.90;36.90;;;;;;5028471;28;25053;-73
2022/03/20 12:00:44;;;;;;;39.78;25.58;;;7.70;40.80;;;;;;5029470;28;25073;-73
2022/03/20 12:03:13;;;;;;;38.13;24.67;;;7.90;42.70;;;;;;5031510;28;25057;-73
2022/03/20 12:05:41;;;;;;;38.75;25.17;;;8.30;40.30;;;;;;5030637;28;25158;-73
2022/03/20 12:08:22;;;;;;;36.03;25.38;;;8.70;38.00;;;;;;5028210;28;25073;-71
2022/03/20 12:11:16;;;;;;;40.13;25.83;;;8.80;38.30;;;;;;5028345;28;25077;-72
2022/03/20 12:14:17;;;;;;;42.67;27.48;;;8.70;37.60;;;;;;5028773;28;25074;-70
2022/03/20 12:16:49;;;;;;;41.08;28.35;;;8.70;39.10;;;;;;5028583;28;25068;-73
2022/03/20 12:19:16;;;;;;;41.78;28.60;;;8.60;39.30;;;;;;5027292;28;25080;-73
2022/03/20 12:22:06;;;;;;;38.38;25.90;;;8.30;41.80;;;;;;5029177;28;25077;-71
2022/03/20 12:24:35;;;;;;;42.53;28.33;;;8.70;45.00;;;;;;5035148;28;25044;-72
2022/03/20 12:27:25;;;;;;;42.55;28.38;;;9.00;44.40;;;;;;5034294;28;25059;-72
2022/03/20 12:30:07;;;;;;;46.80;29.77;;;9.10;43.10;;;;;;5033836;28;25059;-72
2022/03/20 12:32:48;;;;;;;47.15;30.80;;;8.50;41.60;;;;;;5024053;28;25062;-72
2022/03/20 12:35:18;;;;;;;46.80;29.25;;;8.30;44.30;;;;;;5018078;28;25113;-74
2022/03/20 12:37:44;;;;;;;44.17;29.20;;;8.30;45.70;;;;;;5028926;28;25065;-72
2022/03/20 12:40:19;;;;;;;42.15;29.27;;;8.50;45.30;;;;;;5028749;28;25098;-71
2022/03/20 12:43:08;;;;;;;42.85;29.13;;;8.50;44.90;;;;;;5027544;28;25092;-73
2022/03/20 12:45:48;;;;;;;44.75;28.67;;;8.70;44.70;;;;;;5028683;28;25053;-71
2022/03/20 12:48:19;;;;;;;48.95;30.95;;;8.50;44.80;;;;;;5029561;28;25095;-72
2022/03/20 12:50:52;;;;;;;48.45;31.55;;;8.40;44.60;;;;;;5032074;28;25107;-75
2022/03/20 12:53:21;;;;;;;45.80;29.75;;;8.10;46.10;;;;;;5043355;28;25062;-73
2022/03/20 12:55:55;;;;;;;46.60;30.02;;;8.00;47.00;;;;;;5033989;28;25103;-74
2022/03/20 12:58:21;;;;;;;44.83;31.08;;;8.10;44.70;;;;;;5035502;28;25058;-72
2022/03/20 13:00:47;;;;;;;49.17;29.42;;;8.10;42.90;;;;;;5030592;28;25099;-74
2022/03/20 13:03:18;;;;;;;43.42;28.50;;;8.00;42.40;;;;;;5028055;28;25137;-71
2022/03/20 13:05:57;;;;;;;45.95;30.35;;;8.10;43.50;;;;;;5028294;28;25070;-73
2022/03/20 13:08:25;;;;;;;48.38;29.35;;;8.20;43.60;;;;;;5028964;28;25148;-74
2022/03/20 13:10:56;;;;;;;44.08;29.75;;;8.10;43.70;;;;;;5029028;28;25079;-72
2022/03/20 13:13:28;;;;;;;44.15;29.90;;;8.20;44.40;;;;;;5029554;28;25078;-72
2022/03/20 13:15:54;;;;;;;43.33;29.83;;;8.30;44.40;;;;;;5030454;28;25075;-72
2022/03/20 13:18:24;;;;;;;40.95;28.88;;;8.60;42.80;;;;;;5028946;28;25093;-72
2022/03/20 13:20:50;;;;;;;42.90;28.40;;;8.90;42.80;;;;;;5027770;28;25057;-70